sensor_id;sensor_type;location;lat;lon;timestamp;pressure;altitude;pressure_sealevel;temperature;humidity
21779;BME280;11050;52.222;20.916;2023-02-17T00:00:05;100469.28;;;4.87;100.00
21779;BME280;11050;52.222;20.916;2023-02-17T00:02:33;100460.50;;;4.84;100.00
21779;BME280;11050;52.222;20.916;2023-02-17T00:04:59;100450.88;;;4.82;100.00
21779;BME280;11050;52.222;20.916;2023-02-17T00:07:25;100452.34;;;4.78;100.00
21779;BME280;11050;52.222;20.916;2023-02-17T00:09:56;100454.88;;;4.86;100.00
21779;BME280;11050;52.222;20.916;2023-02-17T00:12:22;100453.78;;;4.87;100.00
21779;BME280;11050;52.222;20.916;2023-02-17T00:14:48;100450.03;;;4.88;100.00
21779;BME280;11050;52.222;20.916;2023-02-17T00:17:14;100456.09;;;4.90;100.00
21779;BME280;11050;52.222;20.916;2023-02-17T00:19:40;100446.25;;;4.89;100.00
21779;BME280;11050;52.222;20.916;2023-02-17T00:22:05;100455.28;;;4.90;100.00
21779;BME280;11050;52.222;20.916;2023-02-17T00:24:32;100445.41;;;4.89;100.00
21779;BME280;11050;52.222;20.916;2023-02-17T00:26:59;100442.06;;;4.87;100.00
21779;BME280;11050;52.222;20.916;2023-02-17T00:29:25;100448.53;;;4.92;100.00
21779;BME280;11050;52.222;20.916;2023-02-17T00:31:53;100444.56;;;4.95;100.00
21779;BME280;11050;52.222;20.916;2023-02-17T00:34:19;100444.34;;;4.96;100.00
21779;BME280;11050;52.222;20.916;2023-02-17T00:36:45;100442.47;;;4.97;100.00
21779;BME280;11050;52.222;20.916;2023-02-17T00:39:15;100449.59;;;4.98;100.00
21779;BME280;11050;52.222;20.916;2023-02-17T00:41:41;100427.81;;;4.91;100.00
21779;BME280;11050;52.222;20.916;2023-02-17T00:44:14;100445.19;;;4.97;100.00
21779;BME280;11050;52.222;20.916;2023-02-17T00:46:40;100428.88;;;4.90;100.00
21779;BME280;11050;52.222;20.916;2023-02-17T00:49:06;100428.44;;;4.93;100.00
21779;BME280;11050;52.222;20.916;2023-02-17T00:51:31;100434.50;;;4.95;100.00
21779;BME280;11050;52.222;20.916;2023-02-17T00:53:57;100425.91;;;4.98;100.00
21779;BME280;11050;52.222;20.916;2023-02-17T00:56:23;100427.81;;;4.98;100.00
21779;BME280;11050;52.222;20.916;2023-02-17T00:58:48;100421.06;;;5.00;100.00
21779;BME280;11050;52.222;20.916;2023-02-17T01:01:14;100418.97;;;5.02;100.00
21779;BME280;11050;52.222;20.916;2023-02-17T01:03:40;100413.53;;;5.09;100.00
21779;BME280;11050;52.222;20.916;2023-02-17T01:06:17;100410.41;;;5.05;100.00
21779;BME280;11050;52.222;20.916;2023-02-17T01:08:45;100408.06;;;5.09;100.00
21779;BME280;11050;52.222;20.916;2023-02-17T01:11:23;100415.16;;;5.16;100.00
21779;BME280;11050;52.222;20.916;2023-02-17T01:13:49;100402.16;;;5.18;100.00
21779;BME280;11050;52.222;20.916;2023-02-17T01:16:22;100404.66;;;5.20;100.00
21779;BME280;11050;52.222;20.916;2023-02-17T01:18:48;100406.78;;;5.18;100.00
21779;BME280;11050;52.222;20.916;2023-02-17T01:21:19;100398.81;;;5.16;100.00
21779;BME280;11050;52.222;20.916;2023-02-17T01:23:48;100389.97;;;5.21;100.00
21779;BME280;11050;52.222;20.916;2023-02-17T01:26:17;100394.34;;;5.28;100.00
21779;BME280;11050;52.222;20.916;2023-02-17T01:28:43;100389.09;;;5.33;100.00
21779;BME280;11050;52.222;20.916;2023-02-17T01:31:10;100377.56;;;5.31;100.00
21779;BME280;11050;52.222;20.916;2023-02-17T01:33:38;100379.00;;;5.34;100.00
21779;BME280;11050;52.222;20.916;2023-02-17T01:36:06;100372.06;;;5.38;100.00
21779;BME280;11050;52.222;20.916;2023-02-17T01:38:34;100382.34;;;5.36;100.00
21779;BME280;11050;52.222;20.916;2023-02-17T01:41:01;100377.75;;;5.36;100.00
21779;BME280;11050;52.222;20.916;2023-02-17T01:43:28;100371.50;;;5.29;100.00
21779;BME280;11050;52.222;20.916;2023-02-17T01:45:58;100376.28;;;5.34;100.00
21779;BME280;11050;52.222;20.916;2023-02-17T01:51:01;100368.13;;;5.34;100.00
21779;BME280;11050;52.222;20.916;2023-02-17T01:53:44;100375.25;;;5.35;100.00
21779;BME280;11050;52.222;20.916;2023-02-17T01:56:14;100381.09;;;5.38;100.00
21779;BME280;11050;52.222;20.916;2023-02-17T01:58:46;100368.97;;;5.34;100.00
21779;BME280;11050;52.222;20.916;2023-02-17T02:01:15;100370.44;;;5.30;100.00
21779;BME280;11050;52.222;20.916;2023-02-17T02:03:43;100374.19;;;5.36;100.00
21779;BME280;11050;52.222;20.916;2023-02-17T02:06:15;100365.59;;;5.39;100.00
21779;BME280;11050;52.222;20.916;2023-02-17T02:08:57;100361.56;;;5.41;100.00
21779;BME280;11050;52.222;20.916;2023-02-17T02:11:24;100368.72;;;5.42;100.00
21779;BME280;11050;52.222;20.916;2023-02-17T02:13:50;100366.81;;;5.43;100.00
21779;BME280;11050;52.222;20.916;2023-02-17T02:19:49;100355.69;;;5.44;100.00
21779;BME280;11050;52.222;20.916;2023-02-17T02:31:53;100349.38;;;5.50;100.00
21779;BME280;11050;52.222;20.916;2023-02-17T02:34:29;100351.19;;;5.56;100.00
21779;BME280;11050;52.222;20.916;2023-02-17T02:39:59;100350.53;;;5.61;100.00
21779;BME280;11050;52.222;20.916;2023-02-17T02:42:28;100355.38;;;5.59;100.00
21779;BME280;11050;52.222;20.916;2023-02-17T02:44:55;100346.56;;;5.63;100.00
21779;BME280;11050;52.222;20.916;2023-02-17T02:50:39;100348.22;;;5.64;100.00
21779;BME280;11050;52.222;20.916;2023-02-17T02:53:47;100344.00;;;5.68;100.00
21779;BME280;11050;52.222;20.916;2023-02-17T02:57:03;100332.00;;;5.69;100.00
21779;BME280;11050;52.222;20.916;2023-02-17T03:03:27;100336.38;;;5.77;100.00
21779;BME280;11050;52.222;20.916;2023-02-17T03:06:25;100335.56;;;5.76;100.00
21779;BME280;11050;52.222;20.916;2023-02-17T03:11:29;100340.19;;;5.69;100.00
21779;BME280;11050;52.222;20.916;2023-02-17T03:14:10;100336.03;;;5.67;100.00
21779;BME280;11050;52.222;20.916;2023-02-17T03:16:39;100332.97;;;5.57;100.00
21779;BME280;11050;52.222;20.916;2023-02-17T03:19:08;100335.28;;;5.53;100.00
21779;BME280;11050;52.222;20.916;2023-02-17T03:21:49;100333.66;;;5.52;100.00
21779;BME280;11050;52.222;20.916;2023-02-17T03:24:15;100330.69;;;5.54;100.00
21779;BME280;11050;52.222;20.916;2023-02-17T03:26:40;100338.47;;;5.50;100.00
21779;BME280;11050;52.222;20.916;2023-02-17T03:29:06;100337.84;;;5.48;100.00
21779;BME280;11050;52.222;20.916;2023-02-17T03:31:33;100331.56;;;5.48;100.00
21779;BME280;11050;52.222;20.916;2023-02-17T03:33:59;100339.91;;;5.53;100.00
21779;BME280;11050;52.222;20.916;2023-02-17T03:36:25;100329.06;;;5.46;100.00
21779;BME280;11050;52.222;20.916;2023-02-17T03:38:51;100332.81;;;5.45;100.00
21779;BME280;11050;52.222;20.916;2023-02-17T03:41:17;100333.50;;;5.41;100.00
21779;BME280;11050;52.222;20.916;2023-02-17T03:43:42;100335.31;;;5.47;100.00
21779;BME280;11050;52.222;20.916;2023-02-17T03:46:11;100357.31;;;5.52;100.00
21779;BME280;11050;52.222;20.916;2023-02-17T03:48:37;100344.75;;;5.51;100.00
21779;BME280;11050;52.222;20.916;2023-02-17T03:51:29;100343.34;;;5.42;100.00
21779;BME280;11050;52.222;20.916;2023-02-17T03:53:54;100338.97;;;5.41;100.00
21779;BME280;11050;52.222;20.916;2023-02-17T03:56:20;100336.00;;;5.42;100.00
21779;BME280;11050;52.222;20.916;2023-02-17T03:58:45;100332.44;;;5.42;100.00
21779;BME280;11050;52.222;20.916;2023-02-17T04:01:12;100324.94;;;5.37;100.00
21779;BME280;11050;52.222;20.916;2023-02-17T04:03:40;100329.31;;;5.38;100.00
21779;BME280;11050;52.222;20.916;2023-02-17T04:06:07;100326.16;;;5.41;100.00
21779;BME280;11050;52.222;20.916;2023-02-17T04:08:33;100323.88;;;5.38;100.00
21779;BME280;11050;52.222;20.916;2023-02-17T04:11:02;100309.41;;;5.38;100.00
21779;BME280;11050;52.222;20.916;2023-02-17T04:13:28;100314.63;;;5.39;100.00
21779;BME280;11050;52.222;20.916;2023-02-17T04:15:54;100315.69;;;5.38;100.00
21779;BME280;11050;52.222;20.916;2023-02-17T04:18:21;100318.19;;;5.40;100.00
21779;BME280;11050;52.222;20.916;2023-02-17T04:20:49;100316.94;;;5.42;100.00
21779;BME280;11050;52.222;20.916;2023-02-17T04:23:17;100312.09;;;5.44;100.00
21779;BME280;11050;52.222;20.916;2023-02-17T04:25:43;100322.75;;;5.52;100.00
21779;BME280;11050;52.222;20.916;2023-02-17T04:28:09;100307.69;;;5.43;100.00
21779;BME280;11050;52.222;20.916;2023-02-17T04:30:35;100324.63;;;5.52;100.00
21779;BME280;11050;52.222;20.916;2023-02-17T04:33:01;100319.78;;;5.54;100.00
21779;BME280;11050;52.222;20.916;2023-02-17T04:35:27;100310.59;;;5.48;100.00
21779;BME280;11050;52.222;20.916;2023-02-17T04:37:53;100295.91;;;5.49;100.00
21779;BME280;11050;52.222;20.916;2023-02-17T04:40:19;100290.69;;;5.48;100.00
21779;BME280;11050;52.222;20.916;2023-02-17T04:42:45;100289.34;;;5.57;100.00
21779;BME280;11050;52.222;20.916;2023-02-17T04:45:11;100287.47;;;5.57;100.00
21779;BME280;11050;52.222;20.916;2023-02-17T04:47:37;100292.66;;;5.65;100.00
21779;BME280;11050;52.222;20.916;2023-02-17T04:50:05;100300.38;;;5.68;100.00
21779;BME280;11050;52.222;20.916;2023-02-17T04:52:33;100300.75;;;5.72;100.00
21779;BME280;11050;52.222;20.916;2023-02-17T04:54:59;100292.19;;;5.68;100.00
21779;BME280;11050;52.222;20.916;2023-02-17T04:57:26;100283.00;;;5.63;100.00
21779;BME280;11050;52.222;20.916;2023-02-17T04:59:52;100282.56;;;5.66;100.00
21779;BME280;11050;52.222;20.916;2023-02-17T05:02:18;100276.72;;;5.62;100.00
21779;BME280;11050;52.222;20.916;2023-02-17T05:04:43;100271.47;;;5.67;100.00
21779;BME280;11050;52.222;20.916;2023-02-17T05:07:09;100269.78;;;5.66;100.00
21779;BME280;11050;52.222;20.916;2023-02-17T05:09:35;100257.25;;;5.59;100.00
21779;BME280;11050;52.222;20.916;2023-02-17T05:12:01;100265.16;;;5.67;100.00
21779;BME280;11050;52.222;20.916;2023-02-17T05:14:28;100269.94;;;5.71;100.00
21779;BME280;11050;52.222;20.916;2023-02-17T05:16:54;100268.66;;;5.74;100.00
21779;BME280;11050;52.222;20.916;2023-02-17T05:19:19;100268.03;;;5.72;100.00
21779;BME280;11050;52.222;20.916;2023-02-17T05:21:45;100258.59;;;5.74;100.00
21779;BME280;11050;52.222;20.916;2023-02-17T05:24:11;100259.03;;;5.71;100.00
21779;BME280;11050;52.222;20.916;2023-02-17T05:26:36;100260.13;;;5.64;100.00
21779;BME280;11050;52.222;20.916;2023-02-17T05:29:02;100261.31;;;5.74;100.00
21779;BME280;11050;52.222;20.916;2023-02-17T05:31:28;100259.03;;;5.71;100.00
21779;BME280;11050;52.222;20.916;2023-02-17T05:33:54;100246.84;;;5.74;100.00
21779;BME280;11050;52.222;20.916;2023-02-17T05:36:20;100258.13;;;5.77;100.00
21779;BME280;11050;52.222;20.916;2023-02-17T05:38:45;100250.03;;;5.71;100.00
21779;BME280;11050;52.222;20.916;2023-02-17T05:41:15;100257.75;;;5.74;100.00
21779;BME280;11050;52.222;20.916;2023-02-17T05:43:41;100261.94;;;5.76;100.00
21779;BME280;11050;52.222;20.916;2023-02-17T05:46:07;100245.38;;;5.71;100.00
21779;BME280;11050;52.222;20.916;2023-02-17T05:48:33;100251.06;;;5.70;100.00
21779;BME280;11050;52.222;20.916;2023-02-17T05:50:59;100245.84;;;5.68;100.00
21779;BME280;11050;52.222;20.916;2023-02-17T05:53:25;100246.47;;;5.70;100.00
21779;BME280;11050;52.222;20.916;2023-02-17T05:55:50;100247.50;;;5.69;100.00
21779;BME280;11050;52.222;20.916;2023-02-17T05:58:16;100239.94;;;5.71;100.00
21779;BME280;11050;52.222;20.916;2023-02-17T06:00:42;100246.84;;;5.74;100.00
21779;BME280;11050;52.222;20.916;2023-02-17T06:03:08;100238.66;;;5.74;100.00
21779;BME280;11050;52.222;20.916;2023-02-17T06:05:33;100232.75;;;5.77;100.00
21779;BME280;11050;52.222;20.916;2023-02-17T06:07:59;100244.13;;;5.74;100.00
21779;BME280;11050;52.222;20.916;2023-02-17T06:10:25;100245.38;;;5.71;100.00
21779;BME280;11050;52.222;20.916;2023-02-17T06:12:50;100237.22;;;5.71;100.00
21779;BME280;11050;52.222;20.916;2023-02-17T06:15:16;100240.72;;;5.78;100.00
21779;BME280;11050;52.222;20.916;2023-02-17T06:17:42;100244.50;;;5.77;100.00
21779;BME280;11050;52.222;20.916;2023-02-17T06:20:09;100234.63;;;5.83;100.00
21779;BME280;11050;52.222;20.916;2023-02-17T06:22:35;100246.13;;;5.85;100.00
21779;BME280;11050;52.222;20.916;2023-02-17T06:25:01;100250.31;;;5.88;100.00
21779;BME280;11050;52.222;20.916;2023-02-17T06:27:27;100241.53;;;5.86;100.00
21779;BME280;11050;52.222;20.916;2023-02-17T06:29:52;100247.41;;;5.83;100.00
21779;BME280;11050;52.222;20.916;2023-02-17T06:32:18;100237.53;;;5.88;100.00
21779;BME280;11050;52.222;20.916;2023-02-17T06:34:44;100232.06;;;5.88;100.00
21779;BME280;11050;52.222;20.916;2023-02-17T06:37:10;100242.91;;;5.95;100.00
21779;BME280;11050;52.222;20.916;2023-02-17T06:39:35;100233.81;;;6.01;100.00
21779;BME280;11050;52.222;20.916;2023-02-17T06:42:01;100232.75;;;6.02;100.00
21779;BME280;11050;52.222;20.916;2023-02-17T06:44:27;100239.03;;;6.02;100.00
21779;BME280;11050;52.222;20.916;2023-02-17T06:46:52;100219.09;;;6.02;100.00
21779;BME280;11050;52.222;20.916;2023-02-17T06:49:18;100223.22;;;6.11;100.00
21779;BME280;11050;52.222;20.916;2023-02-17T06:51:44;100219.03;;;6.08;100.00
21779;BME280;11050;52.222;20.916;2023-02-17T06:54:10;100216.84;;;6.17;100.00
21779;BME280;11050;52.222;20.916;2023-02-17T06:56:35;100218.06;;;6.21;100.00
21779;BME280;11050;52.222;20.916;2023-02-17T06:59:02;100222.47;;;6.22;100.00
21779;BME280;11050;52.222;20.916;2023-02-17T07:01:28;100228.44;;;6.30;100.00
21779;BME280;11050;52.222;20.916;2023-02-17T07:03:55;100216.47;;;6.31;100.00
21779;BME280;11050;52.222;20.916;2023-02-17T07:06:23;100219.94;;;6.38;100.00
21779;BME280;11050;52.222;20.916;2023-02-17T07:08:50;100219.41;;;6.48;100.00
21779;BME280;11050;52.222;20.916;2023-02-17T07:11:16;100220.03;;;6.50;100.00
21779;BME280;11050;52.222;20.916;2023-02-17T07:13:43;100227.06;;;6.57;100.00
21779;BME280;11050;52.222;20.916;2023-02-17T07:16:11;100222.72;;;6.68;100.00
21779;BME280;11050;52.222;20.916;2023-02-17T07:18:38;100210.63;;;6.76;100.00
21779;BME280;11050;52.222;20.916;2023-02-17T07:21:06;100208.53;;;6.89;100.00
21779;BME280;11050;52.222;20.916;2023-02-17T07:23:32;100210.81;;;6.92;100.00
21779;BME280;11050;52.222;20.916;2023-02-17T07:26:03;100217.75;;;7.06;100.00
21779;BME280;11050;52.222;20.916;2023-02-17T07:28:29;100217.44;;;7.14;100.00
21779;BME280;11050;52.222;20.916;2023-02-17T07:30:55;100220.41;;;7.24;100.00
21779;BME280;11050;52.222;20.916;2023-02-17T07:33:21;100206.13;;;7.22;100.00
21779;BME280;11050;52.222;20.916;2023-02-17T07:35:46;100218.63;;;7.30;100.00
21779;BME280;11050;52.222;20.916;2023-02-17T07:38:13;100214.25;;;7.29;100.00
21779;BME280;11050;52.222;20.916;2023-02-17T07:40:39;100212.00;;;7.26;100.00
21779;BME280;11050;52.222;20.916;2023-02-17T07:43:05;100206.50;;;7.14;100.00
21779;BME280;11050;52.222;20.916;2023-02-17T07:45:30;100206.25;;;7.16;100.00
21779;BME280;11050;52.222;20.916;2023-02-17T07:47:56;100205.41;;;7.15;100.00
21779;BME280;11050;52.222;20.916;2023-02-17T07:50:22;100220.16;;;7.14;100.00
21779;BME280;11050;52.222;20.916;2023-02-17T07:52:49;100210.63;;;7.17;100.00
21779;BME280;11050;52.222;20.916;2023-02-17T07:55:15;100204.00;;;7.24;100.00
21779;BME280;11050;52.222;20.916;2023-02-17T07:57:41;100203.31;;;7.29;100.00
21779;BME280;11050;52.222;20.916;2023-02-17T08:00:07;100201.28;;;7.36;100.00
21779;BME280;11050;52.222;20.916;2023-02-17T08:02:33;100210.00;;;7.44;100.00
21779;BME280;11050;52.222;20.916;2023-02-17T08:04:59;100204.03;;;7.47;100.00
21779;BME280;11050;52.222;20.916;2023-02-17T08:07:25;100203.22;;;7.58;100.00
21779;BME280;11050;52.222;20.916;2023-02-17T08:09:50;100192.41;;;7.63;100.00
21779;BME280;11050;52.222;20.916;2023-02-17T08:12:34;100199.53;;;7.64;100.00
21779;BME280;11050;52.222;20.916;2023-02-17T08:15:19;100188.00;;;7.51;100.00
21779;BME280;11050;52.222;20.916;2023-02-17T08:17:44;100197.63;;;7.42;100.00
21779;BME280;11050;52.222;20.916;2023-02-17T08:20:10;100192.41;;;7.52;100.00
21779;BME280;11050;52.222;20.916;2023-02-17T08:22:37;100189.44;;;7.65;100.00
21779;BME280;11050;52.222;20.916;2023-02-17T08:25:04;100195.88;;;7.71;100.00
21779;BME280;11050;52.222;20.916;2023-02-17T08:27:30;100191.44;;;7.69;100.00
21779;BME280;11050;52.222;20.916;2023-02-17T08:29:56;100198.59;;;7.71;100.00
21779;BME280;11050;52.222;20.916;2023-02-17T08:32:22;100193.25;;;7.76;100.00
21779;BME280;11050;52.222;20.916;2023-02-17T08:34:48;100191.78;;;7.85;100.00
21779;BME280;11050;52.222;20.916;2023-02-17T08:37:14;100173.38;;;7.92;100.00
21779;BME280;11050;52.222;20.916;2023-02-17T08:39:40;100182.50;;;8.09;100.00
21779;BME280;11050;52.222;20.916;2023-02-17T08:42:06;100174.66;;;8.12;100.00
21779;BME280;11050;52.222;20.916;2023-02-17T08:44:35;100181.31;;;8.16;100.00
21779;BME280;11050;52.222;20.916;2023-02-17T08:47:01;100180.94;;;8.24;100.00
21779;BME280;11050;52.222;20.916;2023-02-17T08:49:29;100188.09;;;8.25;99.91
21779;BME280;11050;52.222;20.916;2023-02-17T08:51:58;100175.22;;;8.26;99.45
21779;BME280;11050;52.222;20.916;2023-02-17T08:54:24;100186.19;;;8.26;99.29
21779;BME280;11050;52.222;20.916;2023-02-17T08:56:50;100176.41;;;8.18;99.89
21779;BME280;11050;52.222;20.916;2023-02-17T08:59:15;100164.75;;;8.23;100.00
21779;BME280;11050;52.222;20.916;2023-02-17T09:01:42;100166.63;;;8.22;100.00
21779;BME280;11050;52.222;20.916;2023-02-17T09:04:10;100169.53;;;8.16;100.00
21779;BME280;11050;52.222;20.916;2023-02-17T09:06:54;100165.13;;;8.03;100.00
21779;BME280;11050;52.222;20.916;2023-02-17T09:09:23;100164.22;;;7.86;100.00
21779;BME280;11050;52.222;20.916;2023-02-17T09:11:53;100165.28;;;7.74;100.00
21779;BME280;11050;52.222;20.916;2023-02-17T09:14:20;100169.34;;;7.59;100.00
21779;BME280;11050;52.222;20.916;2023-02-17T09:16:52;100170.06;;;7.55;100.00
21779;BME280;11050;52.222;20.916;2023-02-17T09:19:19;100172.31;;;7.46;100.00
21779;BME280;11050;52.222;20.916;2023-02-17T09:21:45;100168.03;;;7.39;100.00
21779;BME280;11050;52.222;20.916;2023-02-17T09:24:11;100170.03;;;7.43;100.00
21779;BME280;11050;52.222;20.916;2023-02-17T09:26:37;100146.63;;;7.36;100.00
21779;BME280;11050;52.222;20.916;2023-02-17T09:29:04;100154.56;;;7.37;100.00
21779;BME280;11050;52.222;20.916;2023-02-17T09:31:31;100155.78;;;7.41;100.00
21779;BME280;11050;52.222;20.916;2023-02-17T09:33:58;100146.03;;;7.34;100.00
21779;BME280;11050;52.222;20.916;2023-02-17T09:36:28;100149.13;;;7.37;100.00
21779;BME280;11050;52.222;20.916;2023-02-17T09:38:55;100150.19;;;7.36;100.00
21779;BME280;11050;52.222;20.916;2023-02-17T09:41:29;100140.09;;;7.37;100.00
21779;BME280;11050;52.222;20.916;2023-02-17T09:43:57;100137.56;;;7.35;100.00
21779;BME280;11050;52.222;20.916;2023-02-17T09:46:33;100139.63;;;7.40;100.00
21779;BME280;11050;52.222;20.916;2023-02-17T09:49:14;100123.31;;;7.45;100.00
21779;BME280;11050;52.222;20.916;2023-02-17T09:54:17;100112.03;;;7.53;100.00
21779;BME280;11050;52.222;20.916;2023-02-17T09:56:50;100122.88;;;7.59;100.00
21779;BME280;11050;52.222;20.916;2023-02-17T09:59:30;100107.25;;;7.60;100.00
21779;BME280;11050;52.222;20.916;2023-02-17T10:01:59;100099.44;;;7.63;100.00
21779;BME280;11050;52.222;20.916;2023-02-17T10:04:48;100102.03;;;7.58;100.00
21779;BME280;11050;52.222;20.916;2023-02-17T10:07:37;100107.50;;;7.58;100.00
21779;BME280;11050;52.222;20.916;2023-02-17T10:10:10;100106.91;;;7.56;100.00
21779;BME280;11050;52.222;20.916;2023-02-17T10:12:47;100115.59;;;7.53;100.00
21779;BME280;11050;52.222;20.916;2023-02-17T10:15:21;100119.03;;;7.49;100.00
21779;BME280;11050;52.222;20.916;2023-02-17T10:18:04;100109.31;;;7.41;100.00
21779;BME280;11050;52.222;20.916;2023-02-17T10:20:50;100104.91;;;7.40;100.00
21779;BME280;11050;52.222;20.916;2023-02-17T10:23:24;100105.25;;;7.32;100.00
21779;BME280;11050;52.222;20.916;2023-02-17T10:29:13;100092.69;;;7.31;100.00
21779;BME280;11050;52.222;20.916;2023-02-17T10:35:01;100085.28;;;7.43;100.00
21779;BME280;11050;52.222;20.916;2023-02-17T10:38:00;100079.22;;;7.41;100.00
21779;BME280;11050;52.222;20.916;2023-02-17T10:40:30;100076.75;;;7.51;100.00
21779;BME280;11050;52.222;20.916;2023-02-17T10:43:00;100057.94;;;7.55;100.00
21779;BME280;11050;52.222;20.916;2023-02-17T10:45:34;100065.44;;;7.59;100.00
21779;BME280;11050;52.222;20.916;2023-02-17T10:48:47;100055.44;;;7.65;100.00
21779;BME280;11050;52.222;20.916;2023-02-17T10:51:19;100054.22;;;7.73;100.00
21779;BME280;11050;52.222;20.916;2023-02-17T10:53:55;100034.69;;;7.81;100.00
21779;BME280;11050;52.222;20.916;2023-02-17T10:56:33;100033.09;;;7.96;100.00
21779;BME280;11050;52.222;20.916;2023-02-17T10:59:20;100042.22;;;8.02;100.00
21779;BME280;11050;52.222;20.916;2023-02-17T11:01:48;100030.31;;;8.08;100.00
21779;BME280;11050;52.222;20.916;2023-02-17T11:04:14;100034.16;;;8.07;100.00
21779;BME280;11050;52.222;20.916;2023-02-17T11:06:49;100024.34;;;8.11;100.00
21779;BME280;11050;52.222;20.916;2023-02-17T11:09:22;100008.81;;;8.00;100.00
21779;BME280;11050;52.222;20.916;2023-02-17T11:12:05;100011.31;;;8.01;100.00
21779;BME280;11050;52.222;20.916;2023-02-17T11:14:36;100005.47;;;7.98;100.00
21779;BME280;11050;52.222;20.916;2023-02-17T11:17:27;99995.72;;;8.02;100.00
21779;BME280;11050;52.222;20.916;2023-02-17T11:20:27;99983.59;;;7.98;100.00
21779;BME280;11050;52.222;20.916;2023-02-17T11:23:24;99982.53;;;7.99;100.00
21779;BME280;11050;52.222;20.916;2023-02-17T11:26:42;99976.47;;;7.97;100.00
21779;BME280;11050;52.222;20.916;2023-02-17T11:28:50;99971.59;;;7.99;100.00
21779;BME280;11050;52.222;20.916;2023-02-17T11:31:26;99964.81;;;8.01;100.00
21779;BME280;11050;52.222;20.916;2023-02-17T11:33:53;99959.47;;;7.95;100.00
21779;BME280;11050;52.222;20.916;2023-02-17T11:36:29;99944.97;;;7.94;100.00
21779;BME280;11050;52.222;20.916;2023-02-17T11:38:55;99946.22;;;8.03;100.00
21779;BME280;11050;52.222;20.916;2023-02-17T11:41:22;99938.44;;;8.12;100.00
21779;BME280;11050;52.222;20.916;2023-02-17T11:43:53;99930.56;;;8.15;100.00
21779;BME280;11050;52.222;20.916;2023-02-17T11:47:11;99938.16;;;8.25;100.00
21779;BME280;11050;52.222;20.916;2023-02-17T11:52:43;99927.44;;;8.23;100.00
21779;BME280;11050;52.222;20.916;2023-02-17T11:55:21;99920.53;;;8.21;100.00
21779;BME280;11050;52.222;20.916;2023-02-17T12:02:03;99909.09;;;8.24;100.00
21779;BME280;11050;52.222;20.916;2023-02-17T12:04:58;99891.25;;;8.21;100.00
21779;BME280;11050;52.222;20.916;2023-02-17T12:20:04;99861.34;;;8.31;100.00
21779;BME280;11050;52.222;20.916;2023-02-17T12:23:17;99849.56;;;8.31;100.00
21779;BME280;11050;52.222;20.916;2023-02-17T12:26:18;99833.63;;;8.28;100.00
21779;BME280;11050;52.222;20.916;2023-02-17T12:34:41;99797.81;;;8.29;100.00
21779;BME280;11050;52.222;20.916;2023-02-17T12:37:23;99794.06;;;8.35;100.00
21779;BME280;11050;52.222;20.916;2023-02-17T12:40:13;99795.22;;;8.39;100.00
21779;BME280;11050;52.222;20.916;2023-02-17T12:42:51;99783.19;;;8.40;100.00
21779;BME280;11050;52.222;20.916;2023-02-17T12:45:59;99799.09;;;8.43;100.00
21779;BME280;11050;52.222;20.916;2023-02-17T12:48:33;99805.41;;;8.44;100.00
21779;BME280;11050;52.222;20.916;2023-02-17T12:51:11;99786.00;;;8.45;100.00
21779;BME280;11050;52.222;20.916;2023-02-17T12:53:53;99783.34;;;8.34;100.00
21779;BME280;11050;52.222;20.916;2023-02-17T12:57:04;99782.19;;;8.30;100.00
21779;BME280;11050;52.222;20.916;2023-02-17T12:59:37;99777.63;;;8.35;100.00
21779;BME280;11050;52.222;20.916;2023-02-17T13:02:10;99773.81;;;8.36;100.00
21779;BME280;11050;52.222;20.916;2023-02-17T13:04:38;99766.66;;;8.35;100.00
21779;BME280;11050;52.222;20.916;2023-02-17T13:07:44;99754.41;;;8.38;100.00
21779;BME280;11050;52.222;20.916;2023-02-17T13:10:42;99759.34;;;8.41;100.00
21779;BME280;11050;52.222;20.916;2023-02-17T13:13:25;99764.50;;;8.37;100.00
21779;BME280;11050;52.222;20.916;2023-02-17T13:18:31;99760.44;;;8.40;100.00
21779;BME280;11050;52.222;20.916;2023-02-17T13:24:05;99729.31;;;8.46;100.00
21779;BME280;11050;52.222;20.916;2023-02-17T13:26:42;99730.41;;;8.45;100.00
21779;BME280;11050;52.222;20.916;2023-02-17T13:29:32;99724.13;;;8.44;100.00
21779;BME280;11050;52.222;20.916;2023-02-17T13:32:02;99730.41;;;8.45;100.00
21779;BME280;11050;52.222;20.916;2023-02-17T13:34:44;99706.28;;;8.42;100.00
21779;BME280;11050;52.222;20.916;2023-02-17T13:40:24;99715.06;;;8.44;100.00
21779;BME280;11050;52.222;20.916;2023-02-17T13:43:17;99710.22;;;8.29;100.00
21779;BME280;11050;52.222;20.916;2023-02-17T13:46:01;99703.38;;;8.32;100.00
21779;BME280;11050;52.222;20.916;2023-02-17T13:48:33;99707.50;;;8.29;100.00
21779;BME280;11050;52.222;20.916;2023-02-17T13:51:05;99701.91;;;8.24;100.00
21779;BME280;11050;52.222;20.916;2023-02-17T13:53:37;99694.19;;;8.21;100.00
21779;BME280;11050;52.222;20.916;2023-02-17T13:56:10;99689.66;;;8.27;100.00
21779;BME280;11050;52.222;20.916;2023-02-17T13:58:40;99681.94;;;8.24;100.00
21779;BME280;11050;52.222;20.916;2023-02-17T14:01:14;99690.22;;;8.29;100.00
21779;BME280;11050;52.222;20.916;2023-02-17T14:03:46;99682.00;;;8.29;100.00
21779;BME280;11050;52.222;20.916;2023-02-17T14:06:29;99682.06;;;8.34;100.00
21779;BME280;11050;52.222;20.916;2023-02-17T14:08:55;99676.09;;;8.37;100.00
21779;BME280;11050;52.222;20.916;2023-02-17T14:11:25;99689.78;;;8.37;100.00
21779;BME280;11050;52.222;20.916;2023-02-17T14:13:55;99671.69;;;8.36;100.00